createdAt,value
2024-02-02T00:01:52.739Z,102757.47
2024-02-02T00:04:19.816Z,102752.28
2024-02-02T00:06:47.108Z,102752.09
2024-02-02T00:09:14.300Z,102757.66
2024-02-02T00:11:41.476Z,102764.72
2024-02-02T00:14:08.810Z,102764.06
2024-02-02T00:16:35.831Z,102754.19
2024-02-02T00:19:06.247Z,102766.66
2024-02-02T00:21:33.458Z,102761.03
2024-02-02T00:24:00.599Z,102761.72
2024-02-02T00:26:27.749Z,102763.63
2024-02-02T00:28:55.408Z,102758.91
2024-02-02T00:31:23.441Z,102765.97
2024-02-02T00:33:50.770Z,102766.13
2024-02-02T00:36:18.234Z,102758.88
2024-02-02T00:38:45.462Z,102756.78
2024-02-02T00:41:12.453Z,102771.16
2024-02-02T00:43:39.474Z,102771.16
2024-02-02T00:46:06.743Z,102765.97
2024-02-02T00:48:35.642Z,102765.09
2024-02-02T00:51:05.073Z,102763.50
2024-02-02T00:53:32.213Z,102759.16
2024-02-02T00:55:59.225Z,102763.78
2024-02-02T00:58:26.321Z,102766.47
2024-02-02T01:00:53.438Z,102774.66
2024-02-02T01:03:20.538Z,102768.72
2024-02-02T01:05:47.520Z,102763.34
2024-02-02T01:08:15.465Z,102764.28
2024-02-02T01:10:42.868Z,102760.06
2024-02-02T01:13:10.040Z,102752.94
2024-02-02T01:15:37.291Z,102759.44
2024-02-02T01:18:08.783Z,102755.34
2024-02-02T01:20:36.330Z,102762.44
2024-02-02T01:23:04.332Z,102757.25
2024-02-02T01:25:31.585Z,102761.56
2024-02-02T01:27:58.713Z,102767.00
2024-02-02T01:30:27.809Z,102766.00
2024-02-02T01:32:54.960Z,102765.19
2024-02-02T01:35:23.054Z,102765.31
2024-02-02T01:37:50.352Z,102769.88
2024-02-02T01:40:21.056Z,102772.56
2024-02-02T01:42:48.272Z,102776.50
2024-02-02T01:45:15.616Z,102778.25
2024-02-02T01:47:42.740Z,102784.56
2024-02-02T01:50:10.428Z,102775.75
2024-02-02T01:52:37.732Z,102773.06
2024-02-02T01:55:05.491Z,102769.75
2024-02-02T01:57:32.782Z,102775.13
2024-02-02T02:00:01.539Z,102779.88
2024-02-02T02:02:37.598Z,102769.47
2024-02-02T02:05:04.952Z,102771.50
2024-02-02T02:07:32.200Z,102775.31
2024-02-02T02:09:59.374Z,102774.53
2024-02-02T02:12:26.429Z,102768.56
2024-02-02T02:14:53.736Z,102761.59
2024-02-02T02:17:20.892Z,102758.28
2024-02-02T02:22:18.756Z,102772.81
2024-02-02T02:24:46.050Z,102765.75
2024-02-02T02:27:13.135Z,102763.28
2024-02-02T02:29:40.221Z,102763.44
2024-02-02T02:32:08.044Z,102768.41
2024-02-02T02:34:37.908Z,102756.94
2024-02-02T02:37:05.164Z,102749.00
2024-02-02T02:39:32.266Z,102761.63
2024-02-02T02:41:59.336Z,102753.09
2024-02-02T02:44:27.008Z,102753.41
2024-02-02T02:46:54.071Z,102755.47
2024-02-02T02:49:21.280Z,102754.81
2024-02-02T02:51:49.584Z,102746.88
2024-02-02T02:54:16.909Z,102740.41
2024-02-02T02:56:51.458Z,102743.94
2024-02-02T02:59:19.753Z,102748.38
2024-02-02T03:01:47.405Z,102750.41
2024-02-02T03:04:14.787Z,102760.94
2024-02-02T03:06:41.922Z,102757.50
2024-02-02T03:09:09.731Z,102750.25
2024-02-02T03:11:37.386Z,102745.94
2024-02-02T03:14:06.948Z,102755.94
2024-02-02T03:16:34.209Z,102754.03
2024-02-02T03:19:05.699Z,102754.81
2024-02-02T03:21:33.017Z,102748.50
2024-02-02T03:24:00.107Z,102739.41
2024-02-02T03:26:27.201Z,102742.06
2024-02-02T03:28:54.226Z,102744.59
2024-02-02T03:31:21.321Z,102743.00
2024-02-02T03:33:48.458Z,102745.81
2024-02-02T03:36:15.620Z,102747.72
2024-02-02T03:38:42.731Z,102750.25
2024-02-02T03:41:09.970Z,102738.59
2024-02-02T03:43:36.999Z,102733.00
2024-02-02T03:46:04.163Z,102726.66
2024-02-02T03:48:31.937Z,102739.94
2024-02-02T03:50:59.101Z,102741.75
2024-02-02T03:53:26.120Z,102745.38
2024-02-02T03:55:53.479Z,102741.09
2024-02-02T03:58:20.484Z,102750.41
2024-02-02T04:00:47.779Z,102739.88
2024-02-02T04:03:14.930Z,102733.78
2024-02-02T04:05:42.551Z,102724.81
2024-02-02T04:08:09.783Z,102734.94
2024-02-02T04:10:36.893Z,102738.72
2024-02-02T04:13:03.992Z,102735.41
2024-02-02T04:15:33.264Z,102734.69
2024-02-02T04:18:04.514Z,102737.16
2024-02-02T04:20:31.651Z,102740.75
2024-02-02T04:22:59.057Z,102740.75
2024-02-02T04:25:26.182Z,102743.59
2024-02-02T04:27:53.943Z,102744.53
2024-02-02T04:30:21.145Z,102737.31
2024-02-02T04:32:48.388Z,102746.28
2024-02-02T04:35:15.613Z,102744.53
2024-02-02T04:37:44.810Z,102748.16
2024-02-02T04:40:12.229Z,102747.38
2024-02-02T04:42:39.293Z,102751.22
2024-02-02T04:45:06.881Z,102756.72
2024-02-02T04:47:33.934Z,102760.63
2024-02-02T04:50:01.160Z,102749.88
2024-02-02T04:52:28.225Z,102753.75
2024-02-02T04:54:57.096Z,102754.69
2024-02-02T04:57:24.311Z,102755.72
2024-02-02T04:59:51.410Z,102768.59
2024-02-02T05:02:18.730Z,102765.72
2024-02-02T05:04:45.902Z,102771.94
2024-02-02T05:07:13.125Z,102772.78
2024-02-02T05:09:40.260Z,102771.19
2024-02-02T05:12:07.961Z,102766.72
2024-02-02T05:14:35.218Z,102761.97
2024-02-02T05:17:03.055Z,102768.31
2024-02-02T05:19:30.295Z,102771.78
2024-02-02T05:21:57.399Z,102779.16
2024-02-02T05:24:37.238Z,102767.53
2024-02-02T05:27:13.652Z,102783.78
2024-02-02T05:29:40.865Z,102772.22
2024-02-02T05:32:08.061Z,102773.97
2024-02-02T05:34:35.238Z,102783.03
2024-02-02T05:37:02.766Z,102781.31
2024-02-02T05:39:30.587Z,102779.84
2024-02-02T05:41:59.198Z,102780.72
2024-02-02T05:44:26.450Z,102780.00
2024-02-02T05:46:53.820Z,102783.34
2024-02-02T05:49:21.113Z,102775.38
2024-02-02T05:51:49.434Z,102786.78
2024-02-02T05:54:16.781Z,102793.16
2024-02-02T05:56:43.867Z,102783.19
2024-02-02T05:59:11.017Z,102783.13
2024-02-02T06:01:38.062Z,102784.34
2024-02-02T06:04:05.288Z,102788.97
2024-02-02T06:06:32.733Z,102793.16
2024-02-02T06:09:00.894Z,102803.91
2024-02-02T06:11:28.252Z,102797.63
2024-02-02T06:13:57.468Z,102801.19
2024-02-02T06:16:26.105Z,102810.06
2024-02-02T06:19:04.391Z,102806.59
2024-02-02T06:21:31.579Z,102807.63
2024-02-02T06:23:58.654Z,102800.53
2024-02-02T06:26:25.775Z,102799.50
2024-02-02T06:28:52.810Z,102818.31
2024-02-02T06:31:22.385Z,102811.28
2024-02-02T06:33:49.672Z,102805.22
2024-02-02T06:36:16.835Z,102803.25
2024-02-02T06:38:43.801Z,102803.19
2024-02-02T06:41:12.247Z,102816.69
2024-02-02T06:43:39.278Z,102829.91
2024-02-02T06:46:06.396Z,102830.84
2024-02-02T06:48:33.571Z,102839.47
2024-02-02T06:51:02.990Z,102847.22
2024-02-02T06:53:33.916Z,102849.09
2024-02-02T06:56:00.912Z,102849.91
2024-02-02T06:58:42.775Z,102861.56
2024-02-02T07:01:11.028Z,102864.25
2024-02-02T07:03:39.012Z,102871.28
2024-02-02T07:06:07.416Z,102879.50
2024-02-02T07:08:34.825Z,102877.47
2024-02-02T07:11:35.811Z,102883.69
2024-02-02T07:14:10.761Z,102887.97
2024-02-02T07:16:41.433Z,102883.41
2024-02-02T07:19:33.872Z,102878.13
2024-02-02T07:22:01.073Z,102874.34
2024-02-02T07:24:28.167Z,102881.25
2024-02-02T07:26:55.448Z,102881.97
2024-02-02T07:29:51.631Z,102887.09
2024-02-02T07:32:19.412Z,102886.63
2024-02-02T07:34:49.493Z,102883.94
2024-02-02T07:37:48.975Z,102878.34
2024-02-02T07:41:02.187Z,102885.00
2024-02-02T07:43:34.183Z,102892.59
2024-02-02T07:46:02.809Z,102895.88
2024-02-02T07:48:31.362Z,102897.31
2024-02-02T07:50:58.456Z,102905.13
2024-02-02T07:53:26.071Z,102910.47
2024-02-02T07:55:53.406Z,102900.56
2024-02-02T07:58:23.857Z,102903.97
2024-02-02T08:00:51.825Z,102916.53
2024-02-02T08:03:19.591Z,102924.66
2024-02-02T08:05:48.605Z,102927.03
2024-02-02T08:08:15.956Z,102923.19
2024-02-02T08:10:44.354Z,102926.41
2024-02-02T08:13:14.035Z,102923.34
2024-02-02T08:15:41.604Z,102928.63
2024-02-02T08:18:10.005Z,102933.91
2024-02-02T08:20:37.488Z,102926.84
2024-02-02T08:23:06.001Z,102921.31
2024-02-02T08:25:34.094Z,102919.56
2024-02-02T08:28:02.403Z,102914.00
2024-02-02T08:30:29.853Z,102915.56
2024-02-02T08:32:57.222Z,102919.06
2024-02-02T08:35:26.417Z,102912.06
2024-02-02T08:38:03.981Z,102918.13
2024-02-02T08:40:40.261Z,102913.31
2024-02-02T08:43:18.389Z,102920.56
2024-02-02T08:45:54.614Z,102920.56
2024-02-02T08:48:33.853Z,102909.72
2024-02-02T08:51:02.020Z,102911.19
2024-02-02T08:53:30.988Z,102915.56
2024-02-02T08:56:02.791Z,102915.22
2024-02-02T08:58:36.393Z,102921.00
2024-02-02T09:01:05.229Z,102924.13
2024-02-02T09:03:35.388Z,102917.06
2024-02-02T09:06:08.544Z,102926.84
2024-02-02T09:08:39.601Z,102929.06
2024-02-02T09:11:27.314Z,102923.50
2024-02-02T09:14:19.143Z,102928.28
2024-02-02T09:16:53.886Z,102929.47
2024-02-02T09:19:28.951Z,102918.16
2024-02-02T09:21:59.874Z,102919.78
2024-02-02T09:24:43.403Z,102926.97
2024-02-02T09:27:21.027Z,102926.88
2024-02-02T09:29:49.771Z,102925.50
2024-02-02T09:32:17.677Z,102927.94
2024-02-02T09:34:46.890Z,102920.13
2024-02-02T09:37:28.206Z,102925.22
2024-02-02T09:39:56.623Z,102921.63
2024-02-02T09:42:55.792Z,102930.38
2024-02-02T09:46:01.072Z,102928.59
2024-02-02T09:48:58.893Z,102923.28
2024-02-02T09:52:03.961Z,102916.91
2024-02-02T09:54:50.827Z,102927.03
2024-02-02T09:57:42.925Z,102921.50
2024-02-02T10:00:27.936Z,102924.56
2024-02-02T10:02:55.006Z,102922.78
2024-02-02T10:05:36.987Z,102921.31
2024-02-02T10:08:48.556Z,102910.53
2024-02-02T10:11:31.952Z,102906.53
2024-02-02T10:14:16.052Z,102926.31
2024-02-02T10:17:13.695Z,102917.28
2024-02-02T10:20:35.796Z,102924.31
2024-02-02T10:23:25.894Z,102922.69
2024-02-02T10:26:09.757Z,102915.63
2024-02-02T10:28:36.786Z,102904.56
2024-02-02T10:31:45.477Z,102897.47
2024-02-02T10:34:29.353Z,102906.13
2024-02-02T10:37:24.200Z,102908.38
2024-02-02T10:40:40.964Z,102897.69
2024-02-02T10:43:14.291Z,102902.81
2024-02-02T10:46:13.348Z,102898.63
2024-02-02T10:48:53.373Z,102891.50
2024-02-02T10:51:42.169Z,102902.03
2024-02-02T10:54:50.489Z,102900.53
2024-02-02T10:57:31.938Z,102898.63
2024-02-02T11:03:14.748Z,102891.91
2024-02-02T11:05:53.130Z,102880.84
2024-02-02T11:08:23.561Z,102886.88
2024-02-02T11:10:53.571Z,102882.06
2024-02-02T11:13:33.031Z,102878.06
2024-02-02T11:16:08.859Z,102882.88
2024-02-02T11:19:07.803Z,102866.88
2024-02-02T11:22:12.731Z,102867.81
2024-02-02T11:25:18.247Z,102874.00
2024-02-02T11:27:50.243Z,102866.06
2024-02-02T11:30:26.864Z,102872.84
2024-02-02T11:32:56.904Z,102867.84
2024-02-02T11:35:53.007Z,102868.22
2024-02-02T11:38:32.507Z,102871.56
2024-02-02T11:40:59.999Z,102864.94
2024-02-02T11:43:28.980Z,102856.03
2024-02-02T11:45:57.196Z,102853.13
2024-02-02T11:48:37.089Z,102858.53
2024-02-02T11:51:05.938Z,102853.50
2024-02-02T11:53:46.280Z,102845.03
2024-02-02T11:56:34.957Z,102851.84
2024-02-02T11:59:12.457Z,102847.28
2024-02-02T12:02:19.646Z,102852.53
2024-02-02T12:04:49.445Z,102849.63
2024-02-02T12:07:31.450Z,102846.06
2024-02-02T12:10:11.313Z,102842.91
2024-02-02T12:12:47.413Z,102848.56
2024-02-02T12:15:15.966Z,102842.38
2024-02-02T12:17:44.029Z,102840.38
2024-02-02T12:20:12.879Z,102840.88
2024-02-02T12:22:41.172Z,102830.91
2024-02-02T12:25:11.113Z,102828.34
2024-02-02T12:27:38.990Z,102822.28
2024-02-02T12:30:10.429Z,102816.09
2024-02-02T12:32:38.070Z,102807.50
2024-02-02T12:35:07.195Z,102805.25
2024-02-02T12:38:05.520Z,102808.56
2024-02-02T12:40:33.608Z,102805.25
2024-02-02T12:43:02.818Z,102800.09
2024-02-02T12:45:32.835Z,102800.81
2024-02-02T12:48:01.622Z,102794.13
2024-02-02T12:50:28.809Z,102798.56
2024-02-02T12:52:56.176Z,102788.91
2024-02-02T12:55:23.383Z,102785.59
2024-02-02T12:57:51.961Z,102784.06
2024-02-02T13:00:21.948Z,102773.22
2024-02-02T13:02:54.147Z,102768.97
2024-02-02T13:05:23.485Z,102764.53
2024-02-02T13:07:52.600Z,102764.16
2024-02-02T13:10:39.278Z,102757.53
2024-02-02T13:13:23.465Z,102759.44
2024-02-02T13:15:50.742Z,102770.03
2024-02-02T13:18:21.219Z,102766.13
2024-02-02T13:20:51.229Z,102756.28
2024-02-02T13:23:28.985Z,102768.09
2024-02-02T13:26:02.588Z,102757.00
2024-02-02T13:28:31.329Z,102760.59
2024-02-02T13:31:08.445Z,102757.13
2024-02-02T13:33:37.254Z,102754.03
2024-02-02T13:36:10.951Z,102754.16
2024-02-02T13:38:41.987Z,102742.13
2024-02-02T13:41:09.220Z,102746.22
2024-02-02T13:43:39.061Z,102733.31
2024-02-02T13:46:08.789Z,102741.81
2024-02-02T13:48:45.373Z,102736.41
2024-02-02T13:51:13.212Z,102741.00
2024-02-02T13:53:40.586Z,102736.66
2024-02-02T13:56:11.416Z,102727.81
2024-02-02T13:58:43.361Z,102735.50
2024-02-02T14:01:19.236Z,102738.19
2024-02-02T14:03:47.491Z,102731.16
2024-02-02T14:06:15.465Z,102720.91
2024-02-02T14:08:49.160Z,102724.66
2024-02-02T14:11:23.908Z,102714.03
2024-02-02T14:13:56.033Z,102715.75
2024-02-02T14:16:27.957Z,102707.28
2024-02-02T14:19:02.783Z,102708.81
2024-02-02T14:21:35.150Z,102704.25
2024-02-02T14:24:16.347Z,102710.16
2024-02-02T14:26:57.631Z,102703.84
2024-02-02T14:29:26.914Z,102701.03
2024-02-02T14:31:58.667Z,102703.00
2024-02-02T14:34:28.365Z,102708.69
2024-02-02T14:36:56.314Z,102706.97
2024-02-02T14:39:27.746Z,102707.22
2024-02-02T14:41:56.458Z,102704.53
2024-02-02T14:44:24.933Z,102710.19
2024-02-02T14:46:52.047Z,102701.34
2024-02-02T14:49:23.195Z,102706.88
2024-02-02T14:51:51.706Z,102698.63
2024-02-02T14:54:19.191Z,102705.03
2024-02-02T14:56:46.884Z,102701.09
2024-02-02T14:59:21.750Z,102697.41
2024-02-02T15:01:49.525Z,102689.44
2024-02-02T15:04:17.408Z,102698.03
2024-02-02T15:06:44.985Z,102699.13
2024-02-02T15:09:17.720Z,102703.56
2024-02-02T15:11:45.825Z,102703.56
2024-02-02T15:14:13.855Z,102704.06
2024-02-02T15:16:40.989Z,102705.91
2024-02-02T15:19:08.269Z,102697.06
2024-02-02T15:21:35.621Z,102702.88
2024-02-02T15:24:03.074Z,102704.09
2024-02-02T15:26:30.280Z,102702.91
2024-02-02T15:28:57.313Z,102703.41
2024-02-02T15:31:24.835Z,102711.03
2024-02-02T15:33:52.010Z,102709.06
2024-02-02T15:36:19.397Z,102709.31
2024-02-02T15:39:06.100Z,102715.84
2024-02-02T15:41:36.211Z,102708.47
2024-02-02T15:44:03.357Z,102710.56
2024-02-02T15:46:30.446Z,102712.91
2024-02-02T15:48:57.573Z,102714.00
2024-02-02T15:51:25.441Z,102709.09
2024-02-02T15:53:52.800Z,102711.28
2024-02-02T15:56:25.649Z,102712.88
2024-02-02T15:58:53.585Z,102714.88
2024-02-02T16:01:20.716Z,102719.16
2024-02-02T16:03:47.998Z,102713.16
2024-02-02T16:06:21.590Z,102714.22
2024-02-02T16:08:49.318Z,102710.81
2024-02-02T16:11:17.146Z,102717.19
2024-02-02T16:13:47.178Z,102714.75
2024-02-02T16:16:14.265Z,102709.56
2024-02-02T16:18:41.541Z,102722.59
2024-02-02T16:21:08.844Z,102716.56
2024-02-02T16:23:35.911Z,102717.44
2024-02-02T16:26:02.930Z,102712.50
2024-02-02T16:28:30.583Z,102713.97
2024-02-02T16:30:57.643Z,102723.09
2024-02-02T16:33:24.875Z,102715.34
2024-02-02T16:35:52.031Z,102710.16
2024-02-02T16:38:19.368Z,102715.56
2024-02-02T16:40:46.436Z,102720.63
2024-02-02T16:43:13.593Z,102720.34
2024-02-02T16:45:41.869Z,102739.44
2024-02-02T16:48:09.818Z,102742.69
2024-02-02T16:50:38.343Z,102735.06
2024-02-02T16:53:07.311Z,102736.72
2024-02-02T16:55:34.805Z,102734.59
2024-02-02T16:58:01.921Z,102746.09
2024-02-02T17:00:30.463Z,102749.72
2024-02-02T17:02:57.637Z,102744.53
2024-02-02T17:05:24.794Z,102748.13
2024-02-02T17:07:51.734Z,102754.06
2024-02-02T17:10:18.758Z,102757.13
2024-02-02T17:12:45.848Z,102755.00
2024-02-02T17:15:12.993Z,102762.56
2024-02-02T17:17:41.826Z,102771.84
2024-02-02T17:20:11.679Z,102764.94
2024-02-02T17:22:44.302Z,102771.50
2024-02-02T17:25:12.340Z,102767.22
2024-02-02T17:27:39.597Z,102775.75
2024-02-02T17:30:08.086Z,102764.72
2024-02-02T17:32:39.942Z,102772.63
2024-02-02T17:35:08.982Z,102777.25
2024-02-02T17:37:36.639Z,102778.53
2024-02-02T17:40:05.380Z,102774.75
2024-02-02T17:42:32.590Z,102776.81
2024-02-02T17:44:59.727Z,102780.19
2024-02-02T17:47:26.835Z,102771.81
2024-02-02T17:49:56.757Z,102778.84
2024-02-02T17:52:25.294Z,102784.34
2024-02-02T17:54:52.429Z,102785.13
2024-02-02T17:57:20.067Z,102794.72
2024-02-02T17:59:47.378Z,102790.69
2024-02-02T18:02:14.670Z,102794.34
2024-02-02T18:04:41.940Z,102792.72
2024-02-02T18:07:11.466Z,102798.09
2024-02-02T18:09:40.447Z,102803.91
2024-02-02T18:12:16.332Z,102816.81
2024-02-02T18:14:43.481Z,102823.16
2024-02-02T18:17:15.598Z,102823.56
2024-02-02T18:19:42.714Z,102828.66
2024-02-02T18:22:10.445Z,102835.03
2024-02-02T18:24:37.650Z,102838.78
2024-02-02T18:27:05.082Z,102852.56
2024-02-02T18:29:32.194Z,102844.03
2024-02-02T18:31:59.362Z,102851.66
2024-02-02T18:34:26.674Z,102852.03
2024-02-02T18:36:58.695Z,102859.06
2024-02-02T18:39:37.069Z,102860.44
2024-02-02T18:42:07.118Z,102866.03
2024-02-02T18:44:36.045Z,102862.00
2024-02-02T18:47:04.069Z,102866.63
2024-02-02T18:49:31.724Z,102866.06
2024-02-02T18:51:58.993Z,102867.22
2024-02-02T18:54:26.250Z,102864.78
2024-02-02T18:56:53.818Z,102874.13
2024-02-02T18:59:20.913Z,102877.78
2024-02-02T19:01:48.048Z,102885.44
2024-02-02T19:04:15.272Z,102878.06
2024-02-02T19:06:42.600Z,102865.06
2024-02-02T19:09:12.910Z,102876.03
2024-02-02T19:11:40.427Z,102873.63
2024-02-02T19:14:13.248Z,102876.97
2024-02-02T19:16:43.197Z,102869.97
2024-02-02T19:19:10.452Z,102865.84
2024-02-02T19:21:37.797Z,102867.28
2024-02-02T19:24:05.916Z,102868.50
2024-02-02T19:26:33.090Z,102865.09
2024-02-02T19:29:00.552Z,102859.84
2024-02-02T19:31:30.677Z,102870.59
2024-02-02T19:33:58.015Z,102871.56
2024-02-02T19:36:27.703Z,102872.50
2024-02-02T19:38:56.397Z,102872.34
2024-02-02T19:41:29.822Z,102883.84
2024-02-02T19:43:57.371Z,102887.34
2024-02-02T19:46:26.104Z,102882.53
2024-02-02T19:48:54.854Z,102875.06
2024-02-02T19:51:23.305Z,102882.34
2024-02-02T19:53:50.672Z,102879.09
2024-02-02T19:56:19.575Z,102890.44
2024-02-02T19:58:46.855Z,102877.75
2024-02-02T20:01:21.938Z,102878.34
2024-02-02T20:03:51.082Z,102875.66
2024-02-02T20:06:20.294Z,102875.66
2024-02-02T20:08:54.249Z,102866.81
2024-02-02T20:11:23.051Z,102872.19
2024-02-02T20:13:50.256Z,102867.75
2024-02-02T20:16:18.939Z,102877.75
2024-02-02T20:18:46.442Z,102878.91
2024-02-02T20:21:14.966Z,102875.25
2024-02-02T20:23:42.391Z,102881.78
2024-02-02T20:26:16.367Z,102882.94
2024-02-02T20:28:43.550Z,102888.31
2024-02-02T20:31:11.337Z,102885.97
2024-02-02T20:33:38.494Z,102887.06
2024-02-02T20:36:05.757Z,102889.81
2024-02-02T20:38:32.813Z,102895.22
2024-02-02T20:41:00.058Z,102894.53
2024-02-02T20:43:27.220Z,102900.94
2024-02-02T20:45:54.261Z,102893.28
2024-02-02T20:48:24.932Z,102892.41
2024-02-02T20:50:52.708Z,102889.19
2024-02-02T20:53:20.287Z,102884.88
2024-02-02T20:55:47.401Z,102892.09
2024-02-02T20:58:14.507Z,102896.66
2024-02-02T21:00:42.126Z,102895.13
2024-02-02T21:03:09.452Z,102895.13
2024-02-02T21:05:36.958Z,102895.13
2024-02-02T21:08:04.800Z,102900.69
2024-02-02T21:10:32.677Z,102899.16
2024-02-02T21:12:59.966Z,102891.09
2024-02-02T21:15:33.406Z,102888.56
2024-02-02T21:18:07.523Z,102884.25
2024-02-02T21:20:44.172Z,102887.16
2024-02-02T21:23:12.166Z,102889.06
2024-02-02T21:25:44.382Z,102885.44
2024-02-02T21:28:11.859Z,102889.06
2024-02-02T21:30:38.996Z,102893.56
2024-02-02T21:33:06.537Z,102891.84
2024-02-02T21:35:33.830Z,102887.72
2024-02-02T21:38:00.947Z,102886.91
2024-02-02T21:40:28.110Z,102886.91
2024-02-02T21:42:55.656Z,102885.03
2024-02-02T21:45:23.295Z,102883.28
2024-02-02T21:47:50.807Z,102884.25
2024-02-02T21:50:18.299Z,102875.38
2024-02-02T21:52:45.509Z,102874.78
2024-02-02T21:55:12.600Z,102874.03
2024-02-02T21:57:39.691Z,102878.44
2024-02-02T22:00:08.689Z,102878.72
2024-02-02T22:02:35.870Z,102887.72
2024-02-02T22:05:03.158Z,102884.34
2024-02-02T22:07:30.663Z,102885.13
2024-02-02T22:09:57.898Z,102885.13
2024-02-02T22:12:25.183Z,102887.03
2024-02-02T22:14:53.069Z,102885.47
2024-02-02T22:17:20.312Z,102884.03
2024-02-02T22:19:47.586Z,102891.28
2024-02-02T22:22:14.791Z,102890.41
2024-02-02T22:24:42.526Z,102882.34
2024-02-02T22:27:10.901Z,102893.28
2024-02-02T22:29:38.000Z,102890.69
2024-02-02T22:32:05.761Z,102888.06
2024-02-02T22:34:33.919Z,102884.97
2024-02-02T22:37:01.244Z,102885.28
2024-02-02T22:39:28.511Z,102883.41
2024-02-02T22:41:55.641Z,102887.09
2024-02-02T22:44:22.781Z,102886.25
2024-02-02T22:46:49.913Z,102885.47
2024-02-02T22:49:17.220Z,102883.06
2024-02-02T22:51:47.784Z,102885.66
2024-02-02T22:54:15.629Z,102890.31
2024-02-02T22:56:43.397Z,102886.00
2024-02-02T22:59:11.284Z,102889.63
2024-02-02T23:01:38.362Z,102895.19
2024-02-02T23:04:05.864Z,102888.06
2024-02-02T23:06:33.222Z,102887.13
2024-02-02T23:09:00.451Z,102893.44
2024-02-02T23:11:27.556Z,102888.41
2024-02-02T23:13:54.678Z,102892.22
2024-02-02T23:16:22.249Z,102886.16
2024-02-02T23:18:49.572Z,102882.59
2024-02-02T23:21:17.040Z,102887.97
2024-02-02T23:23:44.343Z,102885.44
2024-02-02T23:26:12.513Z,102888.03
2024-02-02T23:28:39.769Z,102889.09
2024-02-02T23:31:06.855Z,102895.41
2024-02-02T23:33:34.001Z,102889.22
2024-02-02T23:36:01.770Z,102891.25
2024-02-02T23:38:28.900Z,102884.34
2024-02-02T23:40:57.115Z,102894.19
2024-02-02T23:43:24.349Z,102896.13
2024-02-02T23:45:52.085Z,102891.75
2024-02-02T23:48:19.709Z,102888.31
2024-02-02T23:50:46.930Z,102880.41
2024-02-02T23:53:14.322Z,102885.16
2024-02-02T23:55:41.465Z,102885.75
2024-02-02T23:58:08.574Z,102881.16
